createdAt,value
2023-02-20T00:00:32.244Z,6.85
2023-02-20T00:01:32.385Z,6.83
2023-02-20T00:02:32.277Z,6.70
2023-02-20T00:03:32.462Z,6.57
2023-02-20T00:04:32.226Z,6.55
2023-02-20T00:05:32.396Z,6.55
2023-02-20T00:06:32.315Z,6.63
2023-02-20T00:07:32.334Z,6.70
2023-02-20T00:08:32.217Z,6.65
2023-02-20T00:09:32.434Z,6.59
2023-02-20T00:10:32.256Z,6.60
2023-02-20T00:11:32.387Z,6.49
2023-02-20T00:12:32.194Z,6.45
2023-02-20T00:13:32.342Z,6.47
2023-02-20T00:14:32.244Z,6.49
2023-02-20T00:15:32.214Z,6.47
2023-02-20T00:16:32.246Z,6.47
2023-02-20T00:17:32.103Z,6.55
2023-02-20T00:18:32.214Z,6.49
2023-02-20T00:19:32.064Z,6.53
2023-02-20T00:20:32.292Z,6.59
2023-02-20T00:21:32.103Z,6.63
2023-02-20T00:22:32.393Z,6.66
2023-02-20T00:23:32.055Z,6.67
2023-02-20T00:24:32.193Z,6.65
2023-02-20T00:25:32.079Z,6.52
2023-02-20T00:26:32.244Z,6.42
2023-02-20T00:27:32.119Z,6.29
2023-02-20T00:28:32.223Z,6.30
2023-02-20T00:29:34.421Z,6.34
2023-02-20T00:30:32.275Z,6.42
2023-02-20T00:31:32.139Z,6.49
2023-02-20T00:32:31.945Z,6.53
2023-02-20T00:33:32.067Z,6.53
2023-02-20T00:34:31.907Z,6.55
2023-02-20T00:35:32.156Z,6.59
2023-02-20T00:36:32.030Z,6.63
2023-02-20T00:37:32.126Z,6.62
2023-02-20T00:38:31.898Z,6.73
2023-02-20T00:39:32.010Z,6.83
2023-02-20T00:40:31.894Z,6.89
2023-02-20T00:41:32.049Z,6.88
2023-02-20T00:42:32.008Z,6.81
2023-02-20T00:43:32.008Z,6.77
2023-02-20T00:44:32.124Z,6.71
2023-02-20T00:45:32.040Z,6.74
2023-02-20T00:46:31.969Z,6.80
2023-02-20T00:47:31.767Z,6.81
2023-02-20T00:48:31.908Z,6.77
2023-02-20T00:49:31.724Z,6.71
2023-02-20T00:50:32.111Z,6.73
2023-02-20T00:51:31.843Z,6.77
2023-02-20T00:52:31.938Z,6.74
2023-02-20T00:53:31.798Z,6.78
2023-02-20T00:54:31.906Z,6.80
2023-02-20T00:55:31.744Z,6.73
2023-02-20T00:56:31.919Z,6.63
2023-02-20T00:57:31.815Z,6.59
2023-02-20T00:58:31.827Z,6.49
2023-02-20T00:59:31.879Z,6.41
2023-02-20T01:00:31.880Z,6.39
2023-02-20T01:01:31.790Z,6.39
2023-02-20T01:02:31.843Z,6.35
2023-02-20T01:03:31.811Z,6.35
2023-02-20T01:04:31.629Z,6.22
2023-02-20T01:05:31.752Z,6.24
2023-02-20T01:06:31.587Z,6.30
2023-02-20T01:07:31.829Z,6.37
2023-02-20T01:08:31.612Z,6.41
2023-02-20T01:09:31.729Z,6.34
2023-02-20T01:10:31.602Z,6.29
2023-02-20T01:11:31.739Z,6.34
2023-02-20T01:12:31.598Z,6.35
2023-02-20T01:13:31.802Z,6.27
2023-02-20T01:14:31.658Z,6.22
2023-02-20T01:15:31.717Z,6.29
2023-02-20T01:16:31.740Z,6.32
2023-02-20T01:17:31.648Z,6.39
2023-02-20T01:18:31.829Z,6.42
2023-02-20T01:19:31.548Z,6.44
2023-02-20T01:20:31.567Z,6.41
2023-02-20T01:21:31.436Z,6.44
2023-02-20T01:22:31.589Z,6.47
2023-02-20T01:23:31.457Z,6.55
2023-02-20T01:24:31.568Z,6.62
2023-02-20T01:25:31.565Z,6.65
2023-02-20T01:26:31.566Z,6.66
2023-02-20T01:27:31.549Z,6.56
2023-02-20T01:28:31.609Z,6.34
2023-02-20T01:29:31.527Z,6.35
2023-02-20T01:30:31.567Z,6.32
2023-02-20T01:31:31.528Z,6.22
2023-02-20T01:32:31.528Z,6.24
2023-02-20T01:33:31.457Z,6.27
2023-02-20T01:34:31.549Z,6.34
2023-02-20T01:35:31.456Z,6.21
2023-02-20T01:36:31.258Z,6.11
2023-02-20T01:37:31.448Z,6.10
2023-02-20T01:38:31.249Z,6.18
2023-02-20T01:39:31.440Z,6.15
2023-02-20T01:40:31.328Z,6.18
2023-02-20T01:41:31.451Z,6.22
2023-02-20T01:42:31.291Z,6.29
2023-02-20T01:43:31.489Z,6.34
2023-02-20T01:44:31.280Z,6.37
2023-02-20T01:45:31.451Z,6.41
2023-02-20T01:46:31.358Z,6.38
2023-02-20T01:47:31.364Z,6.34
2023-02-20T01:48:31.241Z,6.16
2023-02-20T01:49:31.351Z,6.01
2023-02-20T01:50:31.482Z,6.07
2023-02-20T01:51:31.211Z,6.16
2023-02-20T01:52:31.266Z,6.11
2023-02-20T01:53:31.155Z,6.10
2023-02-20T01:54:31.382Z,6.15
2023-02-20T01:55:31.223Z,6.05
2023-02-20T01:56:31.277Z,6.00
2023-02-20T01:57:31.122Z,6.07
2023-02-20T01:58:31.314Z,6.08
2023-02-20T01:59:31.102Z,6.13
2023-02-20T02:00:31.497Z,6.15
2023-02-20T02:01:31.143Z,6.13
2023-02-20T02:02:31.240Z,6.15
2023-02-20T02:03:31.103Z,6.11
2023-02-20T02:04:31.162Z,6.10
2023-02-20T02:05:31.140Z,6.07
2023-02-20T02:06:31.358Z,6.05
2023-02-20T02:07:31.191Z,6.05
2023-02-20T02:08:30.962Z,6.05
2023-02-20T02:09:31.134Z,6.01
2023-02-20T02:10:31.181Z,6.00
2023-02-20T02:11:31.152Z,5.98
2023-02-20T02:12:30.914Z,5.95
2023-02-20T02:13:31.220Z,5.90
2023-02-20T02:14:30.928Z,5.87
2023-02-20T02:15:31.233Z,5.82
2023-02-20T02:16:30.996Z,5.90
2023-02-20T02:17:31.108Z,5.94
2023-02-20T02:18:30.987Z,6.00
2023-02-20T02:19:31.037Z,6.01
2023-02-20T02:20:30.956Z,6.05
2023-02-20T02:21:31.145Z,6.00
2023-02-20T02:22:30.974Z,6.03
2023-02-20T02:23:30.845Z,6.01
2023-02-20T02:24:30.969Z,6.01
2023-02-20T02:25:30.766Z,6.01
2023-02-20T02:26:30.945Z,6.00
2023-02-20T02:27:30.758Z,5.95
2023-02-20T02:28:31.031Z,5.98
2023-02-20T02:29:30.884Z,6.01
2023-02-20T02:30:31.013Z,5.98
2023-02-20T02:31:31.030Z,6.01
2023-02-20T02:32:30.914Z,6.04
2023-02-20T02:33:30.784Z,6.03
2023-02-20T02:34:30.931Z,6.05
2023-02-20T02:35:30.733Z,5.95
2023-02-20T02:36:30.895Z,5.97
2023-02-20T02:37:30.794Z,6.01
2023-02-20T02:38:30.907Z,6.04
2023-02-20T02:39:30.782Z,6.04
2023-02-20T02:40:30.723Z,6.05
2023-02-20T02:41:30.844Z,6.04
2023-02-20T02:42:30.624Z,5.95
2023-02-20T02:43:30.821Z,5.94
2023-02-20T02:44:30.803Z,5.80
2023-02-20T02:45:31.046Z,5.80
2023-02-20T02:46:30.633Z,5.79
2023-02-20T02:47:31.160Z,5.74
2023-02-20T02:48:30.604Z,5.74
2023-02-20T02:49:30.795Z,5.72
2023-02-20T02:50:30.656Z,5.76
2023-02-20T02:51:30.828Z,5.82
2023-02-20T02:52:30.663Z,5.77
2023-02-20T02:53:30.711Z,5.77
2023-02-20T02:54:30.839Z,5.76
2023-02-20T02:55:30.544Z,5.71
2023-02-20T02:56:30.604Z,5.69
2023-02-20T02:57:30.535Z,5.72
2023-02-20T02:58:30.633Z,5.77
2023-02-20T02:59:30.620Z,5.79
2023-02-20T03:00:30.763Z,5.82
2023-02-20T03:01:30.516Z,5.76
2023-02-20T03:02:30.682Z,5.76
2023-02-20T03:03:30.485Z,5.61
2023-02-20T03:04:30.594Z,5.62
2023-02-20T03:05:30.494Z,5.58
2023-02-20T03:06:30.684Z,5.54
2023-02-20T03:07:30.456Z,5.58
2023-02-20T03:08:30.604Z,5.50
2023-02-20T03:09:30.530Z,5.50
2023-02-20T03:10:30.385Z,5.51
2023-02-20T03:11:30.434Z,5.49
2023-02-20T03:12:30.304Z,5.44
2023-02-20T03:13:30.565Z,5.50
2023-02-20T03:14:30.427Z,5.42
2023-02-20T03:15:30.535Z,5.44
2023-02-20T03:16:30.363Z,5.44
2023-02-20T03:17:30.484Z,5.43
2023-02-20T03:18:30.345Z,5.39
2023-02-20T03:19:30.466Z,5.33
2023-02-20T03:20:30.295Z,5.36
2023-02-20T03:21:30.447Z,5.35
2023-02-20T03:22:30.386Z,5.40
2023-02-20T03:23:30.429Z,5.40
2023-02-20T03:24:30.298Z,5.39
2023-02-20T03:25:30.416Z,5.42
2023-02-20T03:26:30.418Z,5.43
2023-02-20T03:27:30.299Z,5.46
2023-02-20T03:28:30.368Z,5.40
2023-02-20T03:29:30.149Z,5.36
2023-02-20T03:30:30.500Z,5.40
2023-02-20T03:31:30.209Z,5.33
2023-02-20T03:32:30.307Z,5.36
2023-02-20T03:33:30.400Z,5.40
2023-02-20T03:34:30.281Z,5.42
2023-02-20T03:35:30.182Z,5.46
2023-02-20T03:36:30.282Z,5.47
2023-02-20T03:37:30.120Z,5.46
2023-02-20T03:38:30.253Z,5.44
2023-02-20T03:39:30.151Z,5.49
2023-02-20T03:40:30.228Z,5.49
2023-02-20T03:41:30.242Z,5.54
2023-02-20T03:42:29.972Z,5.58
2023-02-20T03:43:30.114Z,5.62
2023-02-20T03:44:30.041Z,5.62
2023-02-20T03:45:30.130Z,5.67
2023-02-20T03:46:30.214Z,5.58
2023-02-20T03:47:30.195Z,5.59
2023-02-20T03:48:29.982Z,5.69
2023-02-20T03:49:30.197Z,5.76
2023-02-20T03:50:29.940Z,5.79
2023-02-20T03:51:30.334Z,5.76
2023-02-20T03:52:30.091Z,5.74
2023-02-20T03:53:30.103Z,5.77
2023-02-20T03:54:30.051Z,5.80
2023-02-20T03:55:30.073Z,5.85
2023-02-20T03:56:30.005Z,5.89
2023-02-20T03:57:29.875Z,5.94
2023-02-20T03:58:30.011Z,5.95
2023-02-20T03:59:29.923Z,5.97
2023-02-20T04:00:30.033Z,5.90
2023-02-20T04:01:29.955Z,5.90
2023-02-20T04:02:30.047Z,5.85
2023-02-20T04:03:29.871Z,5.86
2023-02-20T04:04:30.000Z,5.90
2023-02-20T04:05:29.843Z,5.90
2023-02-20T04:06:30.005Z,5.85
2023-02-20T04:07:29.921Z,5.87
2023-02-20T04:08:29.991Z,5.85
2023-02-20T04:09:29.821Z,5.90
2023-02-20T04:10:29.913Z,5.94
2023-02-20T04:11:29.852Z,5.87
2023-02-20T04:12:30.107Z,5.89
2023-02-20T04:13:29.902Z,5.83
2023-02-20T04:14:29.684Z,5.85
2023-02-20T04:15:29.883Z,5.77
2023-02-20T04:16:29.808Z,5.68
2023-02-20T04:17:29.891Z,5.68
2023-02-20T04:18:29.765Z,5.59
2023-02-20T04:19:29.922Z,5.51
2023-02-20T04:20:29.950Z,5.50
2023-02-20T04:21:29.832Z,5.43
2023-02-20T04:22:29.673Z,5.42
2023-02-20T04:23:29.872Z,5.35
2023-02-20T04:24:29.686Z,5.32
2023-02-20T04:25:29.812Z,5.35
2023-02-20T04:26:29.740Z,5.36
2023-02-20T04:27:29.831Z,5.39
2023-02-20T04:28:29.720Z,5.39
2023-02-20T04:29:29.469Z,5.39
2023-02-20T04:30:29.891Z,5.40
2023-02-20T04:31:29.577Z,5.39
2023-02-20T04:32:29.784Z,5.42
2023-02-20T04:33:29.556Z,5.40
2023-02-20T04:34:29.707Z,5.42
2023-02-20T04:35:29.525Z,5.49
2023-02-20T04:36:29.668Z,5.44
2023-02-20T04:37:29.505Z,5.46
2023-02-20T04:38:29.605Z,5.46
2023-02-20T04:39:29.531Z,5.64
2023-02-20T04:40:29.664Z,5.68
2023-02-20T04:41:29.493Z,5.67
2023-02-20T04:42:29.564Z,5.68
2023-02-20T04:43:29.512Z,5.68
2023-02-20T04:44:29.368Z,5.72
2023-02-20T04:45:29.589Z,5.76
2023-02-20T04:46:29.381Z,5.77
2023-02-20T04:47:29.553Z,5.71
2023-02-20T04:48:29.393Z,5.72
2023-02-20T04:49:29.468Z,5.74
2023-02-20T04:50:29.437Z,5.74
2023-02-20T04:51:29.557Z,5.68
2023-02-20T04:52:29.413Z,5.65
2023-02-20T04:53:29.565Z,5.68
2023-02-20T04:54:29.402Z,5.67
2023-02-20T04:55:29.481Z,5.67
2023-02-20T04:56:29.361Z,5.69
2023-02-20T04:57:29.501Z,5.64
2023-02-20T04:58:29.434Z,5.62
2023-02-20T04:59:29.450Z,5.67
2023-02-20T05:00:29.322Z,5.61
2023-02-20T05:01:29.263Z,5.59
2023-02-20T05:02:29.322Z,5.62
2023-02-20T05:03:29.266Z,5.62
2023-02-20T05:04:29.422Z,5.61
2023-02-20T05:05:29.168Z,5.61
2023-02-20T05:06:29.426Z,5.61
2023-02-20T05:07:29.266Z,5.67
2023-02-20T05:08:30.374Z,5.72
2023-02-20T05:09:29.297Z,5.79
2023-02-20T05:10:29.402Z,5.82
2023-02-20T05:11:29.223Z,5.82
2023-02-20T05:12:29.327Z,5.87
2023-02-20T05:13:29.444Z,5.94
2023-02-20T05:14:29.305Z,5.97
2023-02-20T05:15:29.229Z,5.97
2023-02-20T05:16:29.036Z,5.97
2023-02-20T05:17:29.265Z,5.90
2023-02-20T05:18:29.025Z,5.90
2023-02-20T05:19:29.309Z,5.89
2023-02-20T05:20:29.034Z,5.89
2023-02-20T05:21:29.169Z,5.85
2023-02-20T05:22:29.126Z,5.82
2023-02-20T05:23:29.225Z,5.82
2023-02-20T05:24:29.055Z,5.76
2023-02-20T05:25:29.155Z,5.72
2023-02-20T05:26:29.082Z,5.76
2023-02-20T05:27:29.125Z,5.82
2023-02-20T05:28:29.084Z,5.90
2023-02-20T05:29:29.145Z,5.95
2023-02-20T05:30:29.231Z,5.98
2023-02-20T05:31:29.260Z,5.98
2023-02-20T05:32:29.058Z,6.03
2023-02-20T05:33:28.864Z,5.95
2023-02-20T05:34:29.006Z,5.86
2023-02-20T05:35:28.905Z,5.86
2023-02-20T05:36:29.006Z,5.86
2023-02-20T05:37:28.868Z,5.89
2023-02-20T05:38:29.157Z,5.86
2023-02-20T05:39:29.075Z,5.90
2023-02-20T05:40:29.796Z,5.89
2023-02-20T05:41:28.864Z,5.82
2023-02-20T05:42:29.017Z,5.82
2023-02-20T05:43:28.904Z,5.74
2023-02-20T05:44:28.948Z,5.79
2023-02-20T05:45:29.066Z,5.83
2023-02-20T05:46:28.981Z,5.82
2023-02-20T05:47:29.100Z,5.80
2023-02-20T05:48:28.696Z,5.80
2023-02-20T05:49:28.905Z,5.77
2023-02-20T05:50:28.754Z,5.82
2023-02-20T05:51:28.918Z,5.82
2023-02-20T05:52:28.821Z,5.79
2023-02-20T05:53:28.945Z,5.80
2023-02-20T05:54:28.757Z,5.71
2023-02-20T05:55:28.934Z,5.71
2023-02-20T05:56:28.685Z,5.74
2023-02-20T05:57:28.844Z,5.80
2023-02-20T05:58:28.716Z,5.79
2023-02-20T05:59:28.874Z,5.76
2023-02-20T06:00:28.865Z,5.71
2023-02-20T06:01:28.748Z,5.62
2023-02-20T06:02:28.673Z,5.62
2023-02-20T06:03:28.547Z,5.59
2023-02-20T06:04:28.768Z,5.57
2023-02-20T06:05:28.776Z,5.57
2023-02-20T06:06:28.905Z,5.50
2023-02-20T06:07:28.665Z,5.44
2023-02-20T06:08:28.915Z,5.43
2023-02-20T06:09:28.573Z,5.47
2023-02-20T06:10:28.823Z,5.44
2023-02-20T06:11:28.558Z,5.49
2023-02-20T06:12:28.624Z,5.54
2023-02-20T06:13:28.534Z,5.46
2023-02-20T06:14:28.764Z,5.43
2023-02-20T06:15:28.630Z,5.43
2023-02-20T06:16:28.695Z,5.47
2023-02-20T06:17:28.736Z,5.47
2023-02-20T06:18:28.633Z,5.51
2023-02-20T06:19:28.554Z,5.57
2023-02-20T06:20:28.444Z,5.61
2023-02-20T06:21:28.566Z,5.65
2023-02-20T06:22:28.792Z,5.69
2023-02-20T06:23:28.534Z,5.72
2023-02-20T06:24:28.433Z,5.76
2023-02-20T06:25:28.524Z,5.77
2023-02-20T06:26:28.403Z,5.80
2023-02-20T06:27:28.547Z,5.85
2023-02-20T06:28:28.405Z,5.90
2023-02-20T06:29:28.527Z,5.80
2023-02-20T06:30:28.497Z,5.64
2023-02-20T06:31:28.903Z,5.57
2023-02-20T06:32:28.505Z,5.53
2023-02-20T06:33:28.477Z,5.46
2023-02-20T06:34:28.418Z,5.33
2023-02-20T06:35:28.370Z,5.31
2023-02-20T06:36:28.611Z,5.26
2023-02-20T06:37:28.510Z,5.31
2023-02-20T06:38:28.641Z,5.40
2023-02-20T06:39:28.260Z,5.49
2023-02-20T06:40:28.383Z,5.57
2023-02-20T06:41:28.250Z,5.51
2023-02-20T06:42:28.419Z,5.58
2023-02-20T06:43:28.232Z,5.62
2023-02-20T06:44:28.482Z,5.62
2023-02-20T06:45:28.514Z,5.64
2023-02-20T06:46:28.508Z,5.64
2023-02-20T06:47:28.271Z,5.71
2023-02-20T06:48:28.381Z,5.77
2023-02-20T06:49:28.322Z,5.77
2023-02-20T06:50:28.452Z,5.82
2023-02-20T06:51:28.325Z,5.85
2023-02-20T06:52:28.116Z,5.90
2023-02-20T06:53:28.366Z,5.87
2023-02-20T06:54:28.111Z,5.94
2023-02-20T06:55:28.452Z,5.87
2023-02-20T06:56:28.087Z,5.86
2023-02-20T06:57:28.291Z,5.80
2023-02-20T06:58:28.199Z,5.87
2023-02-20T06:59:28.265Z,5.87
2023-02-20T07:00:28.952Z,5.92
2023-02-20T07:01:28.248Z,5.95
2023-02-20T07:02:28.254Z,6.07
2023-02-20T07:03:28.151Z,6.11
2023-02-20T07:04:28.193Z,6.29
2023-02-20T07:05:28.266Z,6.27
2023-02-20T07:06:28.241Z,6.19
2023-02-20T07:07:27.934Z,6.29
2023-02-20T07:08:28.242Z,6.42
2023-02-20T07:09:28.019Z,6.57
2023-02-20T07:10:28.190Z,6.62
2023-02-20T07:11:27.880Z,6.70
2023-02-20T07:12:28.202Z,6.84
2023-02-20T07:13:27.974Z,6.98
2023-02-20T07:14:28.169Z,7.11
2023-02-20T07:15:27.963Z,7.23
2023-02-20T07:16:28.143Z,7.21
2023-02-20T07:17:27.967Z,7.03
2023-02-20T07:18:28.200Z,6.99
2023-02-20T07:19:27.919Z,6.96
2023-02-20T07:20:28.092Z,7.05
2023-02-20T07:21:27.960Z,6.96
2023-02-20T07:22:27.863Z,6.83
2023-02-20T07:23:28.021Z,6.77
2023-02-20T07:24:27.761Z,6.78
2023-02-20T07:25:27.920Z,6.59
2023-02-20T07:26:27.856Z,6.52
2023-02-20T07:27:28.029Z,6.53
2023-02-20T07:28:27.850Z,6.44
2023-02-20T07:29:27.932Z,6.63
2023-02-20T07:30:28.016Z,6.88
2023-02-20T07:31:28.194Z,6.92
2023-02-20T07:32:27.830Z,6.96
2023-02-20T07:33:27.923Z,7.02
2023-02-20T07:34:28.069Z,7.05
2023-02-20T07:35:27.791Z,7.11
2023-02-20T07:36:27.889Z,7.18
2023-02-20T07:37:27.932Z,7.38
2023-02-20T07:38:27.879Z,7.62
2023-02-20T07:39:27.880Z,7.79
2023-02-20T07:40:27.870Z,7.80
2023-02-20T07:41:27.564Z,7.80
2023-02-20T07:42:27.759Z,7.88
2023-02-20T07:43:28.318Z,7.91
2023-02-20T07:44:28.359Z,7.80
2023-02-20T07:45:27.665Z,7.84
2023-02-20T07:46:28.331Z,7.91
2023-02-20T07:47:27.572Z,8.06
2023-02-20T07:48:28.089Z,8.27
2023-02-20T07:49:27.690Z,8.31
2023-02-20T07:50:27.693Z,8.21
2023-02-20T07:51:28.391Z,8.15
2023-02-20T07:52:28.080Z,8.13
2023-02-20T07:53:27.630Z,8.12
2023-02-20T07:54:27.519Z,8.13
2023-02-20T07:55:27.636Z,8.02
2023-02-20T07:56:27.444Z,8.05
2023-02-20T07:57:27.574Z,8.15
2023-02-20T07:58:27.600Z,8.16
2023-02-20T07:59:28.319Z,8.15
2023-02-20T08:00:27.570Z,8.20
2023-02-20T08:01:27.646Z,8.23
2023-02-20T08:02:27.446Z,8.30
2023-02-20T08:03:27.560Z,8.45
2023-02-20T08:04:27.428Z,8.63
2023-02-20T08:05:30.961Z,8.90
2023-02-20T08:06:27.510Z,9.10
2023-02-20T08:07:27.543Z,9.34
2023-02-20T08:08:27.580Z,9.64
2023-02-20T08:09:27.687Z,10.13
2023-02-20T08:10:27.433Z,10.57
2023-02-20T08:11:27.235Z,11.20
2023-02-20T08:12:27.612Z,11.44
2023-02-20T08:13:27.420Z,11.66
2023-02-20T08:14:27.436Z,11.47
2023-02-20T08:15:27.437Z,10.72
2023-02-20T08:16:27.695Z,10.62
2023-02-20T08:17:37.217Z,10.65
2023-02-20T08:18:27.451Z,10.68
2023-02-20T08:19:27.337Z,10.62
2023-02-20T08:20:27.681Z,10.70
2023-02-20T08:21:27.286Z,10.33
2023-02-20T08:22:40.009Z,10.16
2023-02-20T08:23:27.326Z,9.90
2023-02-20T08:24:27.325Z,9.73
2023-02-20T08:25:27.222Z,9.91
2023-02-20T08:26:27.125Z,9.88
2023-02-20T08:27:27.311Z,9.90
2023-02-20T08:28:27.144Z,9.98
2023-02-20T08:29:27.356Z,9.97
2023-02-20T08:30:27.322Z,10.02
2023-02-20T08:31:32.594Z,10.06
2023-02-20T08:32:27.393Z,10.53
2023-02-20T08:33:27.286Z,12.07
2023-02-20T08:34:27.235Z,13.72
2023-02-20T08:35:27.287Z,14.85
2023-02-20T08:36:27.104Z,16.01
2023-02-20T08:37:27.233Z,16.62
2023-02-20T08:38:27.165Z,17.82
2023-02-20T08:39:27.285Z,18.89
2023-02-20T08:40:27.378Z,19.48
2023-02-20T08:41:27.325Z,18.88
2023-02-20T08:42:28.055Z,18.56
2023-02-20T08:43:28.297Z,18.67
2023-02-20T08:44:27.238Z,18.38
2023-02-20T08:45:27.300Z,17.46
2023-02-20T08:46:27.450Z,17.24
2023-02-20T08:47:27.166Z,16.86
2023-02-20T08:48:27.264Z,16.69
2023-02-20T08:49:27.358Z,16.86
2023-02-20T08:50:27.096Z,17.20
2023-02-20T08:51:27.256Z,16.90
2023-02-20T08:52:26.987Z,16.61
2023-02-20T08:53:27.124Z,16.24
2023-02-20T08:54:27.035Z,15.65
2023-02-20T08:55:27.004Z,15.54
2023-02-20T08:56:27.034Z,15.65
2023-02-20T08:57:27.040Z,15.69
2023-02-20T08:58:27.546Z,15.51
2023-02-20T08:59:26.923Z,16.44
2023-02-20T09:00:27.233Z,16.00
2023-02-20T09:01:27.055Z,15.43
2023-02-20T09:02:27.230Z,14.81
2023-02-20T09:03:26.786Z,14.33
2023-02-20T09:04:26.939Z,14.11
2023-02-20T09:05:27.164Z,13.85
2023-02-20T09:06:26.833Z,13.60
2023-02-20T09:07:26.876Z,13.09
2023-02-20T09:08:26.805Z,12.90
2023-02-20T09:09:26.903Z,12.58
2023-02-20T09:10:26.773Z,12.40
2023-02-20T09:11:26.854Z,12.27
2023-02-20T09:12:26.809Z,12.17
2023-02-20T09:13:26.625Z,12.03
2023-02-20T09:14:26.993Z,11.96
2023-02-20T09:15:26.606Z,12.02
2023-02-20T09:16:26.841Z,12.00
2023-02-20T09:17:26.644Z,11.83
2023-02-20T09:18:26.843Z,11.71
2023-02-20T09:19:27.508Z,11.80
2023-02-20T09:20:26.817Z,11.72
2023-02-20T09:21:26.707Z,11.66
2023-02-20T09:22:27.160Z,11.63
2023-02-20T09:23:26.698Z,11.63
2023-02-20T09:24:26.788Z,11.62
2023-02-20T09:25:26.924Z,11.72
2023-02-20T09:26:26.666Z,11.83
2023-02-20T09:27:26.748Z,11.71
2023-02-20T09:28:26.686Z,11.56
2023-02-20T09:29:26.699Z,11.43
2023-02-20T09:30:27.035Z,11.47
2023-02-20T09:31:27.259Z,11.46
2023-02-20T09:32:26.830Z,11.41
2023-02-20T09:33:26.702Z,11.47
2023-02-20T09:34:26.668Z,11.43
2023-02-20T09:35:26.717Z,11.38
2023-02-20T09:36:26.992Z,11.44
2023-02-20T09:37:26.626Z,11.58
2023-02-20T09:38:26.575Z,11.58
2023-02-20T09:39:26.558Z,11.54
2023-02-20T09:40:26.545Z,11.56
2023-02-20T09:41:26.634Z,11.69
2023-02-20T09:42:26.587Z,11.71
2023-02-20T09:43:26.609Z,11.80
2023-02-20T09:44:26.510Z,11.84
2023-02-20T09:45:26.448Z,11.91
2023-02-20T09:46:26.565Z,11.84
2023-02-20T09:47:26.407Z,11.84
2023-02-20T09:48:26.529Z,11.86
2023-02-20T09:49:26.337Z,11.90
2023-02-20T09:50:26.418Z,11.88
2023-02-20T09:51:26.308Z,11.83
2023-02-20T09:52:26.657Z,11.84
2023-02-20T09:53:26.470Z,11.79
2023-02-20T09:54:26.474Z,11.81
2023-02-20T09:55:26.307Z,11.91
2023-02-20T09:56:26.416Z,11.96
2023-02-20T09:57:26.327Z,11.87
2023-02-20T09:58:26.484Z,11.96
2023-02-20T09:59:26.418Z,11.91
2023-02-20T10:00:26.176Z,12.03
2023-02-20T10:01:26.458Z,12.10
2023-02-20T10:02:26.405Z,12.06
2023-02-20T10:03:26.460Z,12.07
2023-02-20T10:04:26.387Z,12.10
2023-02-20T10:05:26.319Z,12.20
2023-02-20T10:06:26.518Z,12.21
2023-02-20T10:07:26.316Z,12.35
2023-02-20T10:08:26.392Z,12.46
2023-02-20T10:09:26.365Z,12.36
2023-02-20T10:10:26.111Z,12.28
2023-02-20T10:11:26.186Z,12.42
2023-02-20T10:12:26.387Z,12.36
2023-02-20T10:13:26.290Z,12.25
2023-02-20T10:14:26.377Z,12.27
2023-02-20T10:15:26.043Z,12.22
2023-02-20T10:16:26.363Z,12.24
2023-02-20T10:17:25.966Z,12.21
2023-02-20T10:18:26.143Z,12.36
2023-02-20T10:19:26.028Z,12.20
2023-02-20T10:20:26.184Z,12.10
2023-02-20T10:21:26.009Z,12.18
2023-02-20T10:22:26.196Z,12.36
2023-02-20T10:23:28.377Z,12.28
2023-02-20T10:24:26.164Z,12.32
2023-02-20T10:25:25.978Z,12.25
2023-02-20T10:26:26.175Z,12.27
2023-02-20T10:27:26.121Z,12.21
2023-02-20T10:28:26.062Z,12.27
2023-02-20T10:29:26.137Z,12.24
2023-02-20T10:30:25.817Z,12.30
2023-02-20T10:31:26.152Z,12.35
2023-02-20T10:32:25.921Z,12.27
2023-02-20T10:33:25.922Z,12.38
2023-02-20T10:34:25.773Z,12.38
2023-02-20T10:35:26.122Z,12.32
2023-02-20T10:36:25.810Z,12.32
2023-02-20T10:37:29.619Z,12.35
2023-02-20T10:38:25.942Z,12.47
2023-02-20T10:39:26.036Z,12.45
2023-02-20T10:40:25.871Z,12.51
2023-02-20T10:41:25.951Z,12.53
2023-02-20T10:42:25.982Z,12.55
2023-02-20T10:43:26.031Z,12.57
2023-02-20T10:44:25.834Z,12.47
2023-02-20T10:45:25.955Z,12.50
2023-02-20T10:46:26.336Z,12.58
2023-02-20T10:47:25.632Z,12.39
2023-02-20T10:48:25.853Z,12.42
2023-02-20T10:49:25.745Z,12.42
2023-02-20T10:50:25.883Z,12.40
2023-02-20T10:51:25.902Z,12.35
2023-02-20T10:52:34.193Z,12.38
2023-02-20T10:53:25.813Z,12.39
2023-02-20T10:54:25.850Z,12.33
2023-02-20T10:55:25.763Z,12.39
2023-02-20T10:56:25.750Z,12.40
2023-02-20T10:57:25.712Z,12.46
2023-02-20T10:58:25.830Z,12.42
2023-02-20T10:59:26.443Z,12.40
2023-02-20T11:00:25.819Z,12.38
2023-02-20T11:01:25.891Z,12.38
2023-02-20T11:02:25.567Z,12.40
2023-02-20T11:03:25.769Z,12.42
2023-02-20T11:04:25.525Z,12.43
2023-02-20T11:05:25.656Z,12.43
2023-02-20T11:06:25.597Z,12.46
2023-02-20T11:07:25.703Z,12.50
2023-02-20T11:08:25.748Z,12.60
2023-02-20T11:09:25.723Z,12.68
2023-02-20T11:10:25.476Z,12.76
2023-02-20T11:11:25.740Z,12.78
2023-02-20T11:12:25.647Z,12.87
2023-02-20T11:13:25.612Z,12.88
2023-02-20T11:14:39.212Z,13.00
2023-02-20T11:15:26.354Z,13.12
2023-02-20T11:16:25.545Z,13.12
2023-02-20T11:17:25.375Z,13.12
2023-02-20T11:18:25.918Z,12.91
2023-02-20T11:19:25.681Z,12.93
2023-02-20T11:20:25.875Z,12.93
2023-02-20T11:21:25.368Z,12.97
2023-02-20T11:22:25.556Z,13.03
2023-02-20T11:23:25.439Z,13.06
2023-02-20T11:24:25.527Z,13.03
2023-02-20T11:25:25.332Z,13.08
2023-02-20T11:26:25.812Z,13.15
2023-02-20T11:27:25.410Z,13.21
2023-02-20T11:28:25.556Z,13.22
2023-02-20T11:29:25.340Z,13.31
2023-02-20T11:30:25.538Z,13.39
2023-02-20T11:31:25.600Z,13.33
2023-02-20T11:32:25.451Z,13.37
2023-02-20T11:33:25.472Z,13.35
2023-02-20T11:34:25.207Z,13.37
2023-02-20T11:35:25.587Z,13.37
2023-02-20T11:36:25.142Z,13.49
2023-02-20T11:37:25.479Z,13.45
2023-02-20T11:38:25.391Z,13.33
2023-02-20T11:39:25.870Z,13.33
2023-02-20T11:40:25.208Z,13.39
2023-02-20T11:41:26.121Z,13.37
2023-02-20T11:42:25.726Z,13.52
2023-02-20T11:43:25.341Z,13.68
2023-02-20T11:44:25.187Z,13.80
2023-02-20T11:45:25.890Z,13.80
2023-02-20T11:46:25.866Z,13.72
2023-02-20T11:47:25.871Z,13.64
2023-02-20T11:48:25.231Z,13.49
2023-02-20T11:49:25.108Z,13.55
2023-02-20T11:50:25.321Z,13.64
2023-02-20T11:51:25.022Z,13.75
2023-02-20T11:52:25.213Z,13.80
2023-02-20T11:53:25.213Z,13.90
2023-02-20T11:54:25.350Z,13.93
2023-02-20T11:55:27.306Z,13.90
2023-02-20T11:56:25.307Z,13.88
2023-02-20T11:57:25.248Z,13.82
2023-02-20T11:58:25.295Z,13.74
2023-02-20T11:59:25.054Z,13.68
2023-02-20T12:00:25.375Z,13.59
2023-02-20T12:01:25.654Z,13.49
2023-02-20T12:02:25.242Z,13.43
2023-02-20T12:03:25.106Z,13.41
2023-02-20T12:04:25.028Z,13.43
2023-02-20T12:05:25.253Z,13.30
2023-02-20T12:06:24.972Z,13.21
2023-02-20T12:07:25.140Z,13.12
2023-02-20T12:08:24.831Z,13.11
2023-02-20T12:09:25.080Z,13.03
2023-02-20T12:10:24.917Z,13.08
2023-02-20T12:11:24.986Z,13.11
2023-02-20T12:12:24.907Z,13.21
2023-02-20T12:13:25.058Z,13.21
2023-02-20T12:14:24.979Z,13.21
2023-02-20T12:15:24.972Z,13.27
2023-02-20T12:16:24.937Z,13.21
2023-02-20T12:17:25.198Z,13.24
2023-02-20T12:18:24.900Z,13.30
2023-02-20T12:19:24.802Z,13.27
2023-02-20T12:20:25.036Z,13.19
2023-02-20T12:21:24.850Z,13.12
2023-02-20T12:22:24.963Z,13.15
2023-02-20T12:23:24.920Z,13.13
2023-02-20T12:24:25.011Z,13.24
2023-02-20T12:25:24.753Z,13.18
2023-02-20T12:26:24.942Z,13.18
2023-02-20T12:27:24.693Z,13.16
2023-02-20T12:28:24.871Z,13.22
2023-02-20T12:29:24.731Z,13.21
2023-02-20T12:30:24.903Z,13.18
2023-02-20T12:31:24.991Z,13.21
2023-02-20T12:32:24.761Z,13.22
2023-02-20T12:33:24.655Z,13.09
2023-02-20T12:34:24.791Z,13.09
2023-02-20T12:35:24.744Z,13.15
2023-02-20T12:36:24.582Z,13.27
2023-02-20T12:37:25.152Z,13.22
2023-02-20T12:38:24.553Z,13.26
2023-02-20T12:39:24.757Z,13.35
2023-02-20T12:40:24.576Z,13.46
2023-02-20T12:41:24.893Z,13.50
2023-02-20T12:42:24.638Z,13.53
2023-02-20T12:43:25.105Z,13.49
2023-02-20T12:44:24.642Z,13.52
2023-02-20T12:45:24.814Z,13.52
2023-02-20T12:46:24.816Z,13.53
2023-02-20T12:47:24.673Z,13.50
2023-02-20T12:48:24.953Z,13.41
2023-02-20T12:49:24.794Z,13.45
2023-02-20T12:50:24.695Z,13.56
2023-02-20T12:51:24.364Z,13.65
2023-02-20T12:52:24.548Z,13.52
2023-02-20T12:53:24.425Z,13.49
2023-02-20T12:54:24.773Z,13.50
2023-02-20T12:55:24.483Z,13.49
2023-02-20T12:56:24.508Z,13.46
2023-02-20T12:57:24.503Z,13.47
2023-02-20T12:58:24.549Z,13.41
2023-02-20T12:59:24.534Z,13.45
2023-02-20T13:00:24.573Z,13.39
2023-02-20T13:01:38.469Z,13.33
2023-02-20T13:02:39.398Z,13.35
2023-02-20T13:03:24.394Z,13.41
2023-02-20T13:04:24.438Z,13.38
2023-02-20T13:05:24.503Z,13.31
2023-02-20T13:06:24.369Z,13.30
2023-02-20T13:07:24.454Z,13.31
2023-02-20T13:08:24.194Z,13.31